createdAt,value
2023-05-09T00:00:25.012Z,26.80
2023-05-09T00:02:51.546Z,27.10
2023-05-09T00:05:18.560Z,27.10
2023-05-09T00:07:44.994Z,26.38
2023-05-09T00:10:11.529Z,27.23
2023-05-09T00:12:38.072Z,26.58
2023-05-09T00:15:08.125Z,26.37
2023-05-09T00:17:36.421Z,27.17
2023-05-09T00:20:05.208Z,27.00
2023-05-09T00:22:31.753Z,25.40
2023-05-09T00:24:58.210Z,25.30
2023-05-09T00:27:24.657Z,24.87
2023-05-09T00:29:51.094Z,24.65
2023-05-09T00:32:17.634Z,25.02
2023-05-09T00:34:44.140Z,25.63
2023-05-09T00:37:10.624Z,25.92
2023-05-09T00:39:37.074Z,25.33
2023-05-09T00:42:03.758Z,26.15
2023-05-09T00:44:30.559Z,24.88
2023-05-09T00:46:57.095Z,25.27
2023-05-09T00:49:23.644Z,24.90
2023-05-09T00:51:50.312Z,25.40
2023-05-09T00:54:16.839Z,24.33
2023-05-09T00:56:43.348Z,26.23
2023-05-09T00:59:09.918Z,25.10
2023-05-09T01:01:36.730Z,23.85
2023-05-09T01:04:03.492Z,23.40
2023-05-09T01:06:44.984Z,24.40
2023-05-09T01:09:54.707Z,23.83
2023-05-09T01:12:42.917Z,23.55
2023-05-09T01:15:24.078Z,23.05
2023-05-09T01:18:06.646Z,24.00
2023-05-09T01:20:57.424Z,24.38
2023-05-09T01:23:45.055Z,25.35
2023-05-09T01:26:22.112Z,26.98
2023-05-09T01:29:09.586Z,26.85
2023-05-09T01:31:38.824Z,25.90
2023-05-09T01:34:07.093Z,27.95
2023-05-09T01:36:37.071Z,25.92
2023-05-09T01:39:05.764Z,30.23
2023-05-09T01:41:36.443Z,30.52
2023-05-09T01:44:07.162Z,27.83
2023-05-09T01:46:36.145Z,28.33
2023-05-09T01:49:03.592Z,28.85
2023-05-09T01:51:31.678Z,28.52
2023-05-09T01:54:00.135Z,29.88
2023-05-09T01:56:27.589Z,28.50
2023-05-09T01:58:56.254Z,29.42
2023-05-09T02:01:24.664Z,28.63
2023-05-09T02:03:54.542Z,29.23
2023-05-09T02:06:23.338Z,28.92
2023-05-09T02:08:50.882Z,27.97
2023-05-09T02:11:17.589Z,30.58
2023-05-09T02:13:44.098Z,29.65
2023-05-09T02:16:12.141Z,29.33
2023-05-09T02:18:38.725Z,30.00
2023-05-09T02:21:06.246Z,29.33
2023-05-09T02:23:32.757Z,28.70
2023-05-09T02:25:59.659Z,29.10
2023-05-09T02:28:27.790Z,29.77
2023-05-09T02:30:56.980Z,30.98
2023-05-09T02:33:24.231Z,28.60
2023-05-09T02:35:51.271Z,28.23
2023-05-09T02:38:19.189Z,27.27
2023-05-09T02:40:47.598Z,26.58
2023-05-09T02:43:15.263Z,25.85
2023-05-09T02:45:42.138Z,26.70
2023-05-09T02:48:09.303Z,27.30
2023-05-09T02:50:38.223Z,26.10
2023-05-09T02:53:05.316Z,27.58
2023-05-09T02:55:31.879Z,25.55
2023-05-09T02:58:12.147Z,27.23
2023-05-09T03:00:40.569Z,25.70
2023-05-09T03:03:07.124Z,26.85
2023-05-09T03:05:33.598Z,27.90
2023-05-09T03:08:00.061Z,28.08
2023-05-09T03:10:26.654Z,27.90
2023-05-09T03:12:53.135Z,27.67
2023-05-09T03:15:20.962Z,26.05
2023-05-09T03:17:47.724Z,25.77
2023-05-09T03:20:14.356Z,27.25
2023-05-09T03:22:40.805Z,26.30
2023-05-09T03:25:07.637Z,27.05
2023-05-09T03:27:34.176Z,27.08
2023-05-09T03:30:00.663Z,27.08
2023-05-09T03:32:27.428Z,24.55
2023-05-09T03:34:54.740Z,26.30
2023-05-09T03:37:21.388Z,26.67
2023-05-09T03:39:47.866Z,25.58
2023-05-09T03:42:14.339Z,26.08
2023-05-09T03:44:40.878Z,25.15
2023-05-09T03:47:07.420Z,25.17
2023-05-09T03:49:33.976Z,25.63
2023-05-09T03:52:00.466Z,24.73
2023-05-09T03:54:26.910Z,24.95
2023-05-09T03:56:53.352Z,23.00
2023-05-09T03:59:20.782Z,23.53
2023-05-09T04:01:47.421Z,22.73
2023-05-09T04:04:14.169Z,23.10
2023-05-09T04:06:40.783Z,21.98
2023-05-09T04:09:07.395Z,22.20
2023-05-09T04:11:33.939Z,21.27
2023-05-09T04:14:00.503Z,20.23
2023-05-09T04:16:27.004Z,20.42
2023-05-09T04:18:53.452Z,20.75
2023-05-09T04:21:19.934Z,20.10
2023-05-09T04:23:46.440Z,19.73
2023-05-09T04:26:13.884Z,18.90
2023-05-09T04:28:40.334Z,19.33
2023-05-09T04:31:07.083Z,19.23
2023-05-09T04:33:34.561Z,18.45
2023-05-09T04:36:01.101Z,18.53
2023-05-09T04:38:27.871Z,18.20
2023-05-09T04:40:54.355Z,19.25
2023-05-09T04:43:21.003Z,18.50
2023-05-09T04:45:47.855Z,20.48
2023-05-09T04:48:14.380Z,19.20
2023-05-09T04:50:41.513Z,19.00
2023-05-09T04:53:08.355Z,17.88
2023-05-09T04:55:35.679Z,20.08
2023-05-09T04:58:02.255Z,18.40
2023-05-09T05:00:28.682Z,19.83
2023-05-09T05:02:55.317Z,19.48
2023-05-09T05:05:25.082Z,18.65
2023-05-09T05:07:53.397Z,18.55
2023-05-09T05:10:19.850Z,17.13
2023-05-09T05:12:46.501Z,17.53
2023-05-09T05:15:13.296Z,18.23
2023-05-09T05:17:39.944Z,16.23
2023-05-09T05:20:08.291Z,17.00
2023-05-09T05:22:35.889Z,19.17
2023-05-09T05:25:04.361Z,17.60
2023-05-09T05:27:31.410Z,17.23
2023-05-09T05:29:57.949Z,17.88
2023-05-09T05:32:24.438Z,16.88
2023-05-09T05:34:51.016Z,17.52
2023-05-09T05:37:17.502Z,18.03
2023-05-09T05:39:43.983Z,18.58
2023-05-09T05:42:11.575Z,18.45
2023-05-09T05:44:38.008Z,17.98
2023-05-09T05:47:04.486Z,17.65
2023-05-09T05:49:31.120Z,17.97
2023-05-09T05:51:57.590Z,17.77
2023-05-09T05:54:24.069Z,18.90
2023-05-09T05:56:50.639Z,18.60
2023-05-09T05:59:17.215Z,17.48
2023-05-09T06:01:43.762Z,17.37
2023-05-09T06:04:10.382Z,17.13
2023-05-09T06:06:37.078Z,16.55
2023-05-09T06:09:03.566Z,16.98
2023-05-09T06:11:30.101Z,16.42
2023-05-09T06:13:56.610Z,16.70
2023-05-09T06:16:23.282Z,18.20
2023-05-09T06:18:50.085Z,16.98
2023-05-09T06:21:16.600Z,18.50
2023-05-09T06:23:57.762Z,17.65
2023-05-09T06:26:30.795Z,17.53
2023-05-09T06:28:57.333Z,17.60
2023-05-09T06:31:25.495Z,16.92
2023-05-09T06:33:52.699Z,16.52
2023-05-09T06:36:19.232Z,15.93
2023-05-09T06:38:45.890Z,16.83
2023-05-09T06:41:12.368Z,16.00
2023-05-09T06:43:38.849Z,15.32
2023-05-09T06:46:05.455Z,17.15
2023-05-09T06:48:32.006Z,16.77
2023-05-09T06:50:58.430Z,16.43
2023-05-09T06:53:25.068Z,17.35
2023-05-09T06:55:51.719Z,16.58
2023-05-09T06:58:18.348Z,16.10
2023-05-09T07:00:44.873Z,16.25
2023-05-09T07:03:11.700Z,15.53
2023-05-09T07:05:38.236Z,15.23
2023-05-09T07:08:04.926Z,15.65
2023-05-09T07:10:31.706Z,16.05
2023-05-09T07:12:58.525Z,14.98
2023-05-09T07:15:39.761Z,16.53
2023-05-09T07:18:08.559Z,15.55
2023-05-09T07:20:35.132Z,14.63
2023-05-09T07:23:04.026Z,14.60
2023-05-09T07:25:30.735Z,15.82
2023-05-09T07:27:57.970Z,16.07
2023-05-09T07:30:24.994Z,16.30
2023-05-09T07:32:51.972Z,14.93
2023-05-09T07:35:19.889Z,15.20
2023-05-09T07:37:46.486Z,15.38
2023-05-09T07:40:13.476Z,14.80
2023-05-09T07:42:40.266Z,15.10
2023-05-09T07:45:07.321Z,15.07
2023-05-09T07:47:33.853Z,15.50
2023-05-09T07:50:00.384Z,14.93
2023-05-09T07:52:26.811Z,16.10
2023-05-09T07:54:54.550Z,15.55
2023-05-09T07:57:21.055Z,15.80
2023-05-09T07:59:47.548Z,15.15
2023-05-09T08:02:14.032Z,14.55
2023-05-09T08:04:41.482Z,15.57
2023-05-09T08:07:09.045Z,14.52
2023-05-09T08:09:35.712Z,15.25
2023-05-09T08:12:02.192Z,14.45
2023-05-09T08:14:28.659Z,15.23
2023-05-09T08:16:55.172Z,14.77
2023-05-09T08:19:23.571Z,13.65
2023-05-09T08:21:50.160Z,12.18
2023-05-09T08:24:16.661Z,12.77
2023-05-09T08:26:44.163Z,12.32
2023-05-09T08:29:10.866Z,13.40
2023-05-09T08:31:37.396Z,13.10
2023-05-09T08:34:04.506Z,13.45
2023-05-09T08:36:31.289Z,12.68
2023-05-09T08:38:57.867Z,12.90
2023-05-09T08:41:28.121Z,13.30
2023-05-09T08:43:55.211Z,12.40
2023-05-09T08:46:30.407Z,12.52
2023-05-09T08:48:57.778Z,12.75
2023-05-09T08:51:25.030Z,12.65
2023-05-09T08:53:52.052Z,13.07
2023-05-09T08:56:19.101Z,13.48
2023-05-09T08:58:45.713Z,11.75
2023-05-09T09:01:14.408Z,12.15
2023-05-09T09:03:47.493Z,12.57
2023-05-09T09:06:14.404Z,12.17
2023-05-09T09:08:41.787Z,12.75
2023-05-09T09:11:12.134Z,11.68
2023-05-09T09:13:41.305Z,11.80
2023-05-09T09:16:11.391Z,11.95
2023-05-09T09:18:39.929Z,11.10
2023-05-09T09:21:10.379Z,11.55
2023-05-09T09:23:39.863Z,11.65
2023-05-09T09:26:06.371Z,11.05
2023-05-09T09:28:33.940Z,10.13
2023-05-09T09:31:00.657Z,9.40
2023-05-09T09:33:28.686Z,10.32
2023-05-09T09:35:56.725Z,10.48
2023-05-09T09:38:24.422Z,11.65
2023-05-09T09:40:58.062Z,10.98
2023-05-09T09:43:31.788Z,10.03
2023-05-09T09:46:07.486Z,9.38
2023-05-09T09:48:35.553Z,9.40
2023-05-09T09:51:12.637Z,9.68
2023-05-09T09:53:43.325Z,9.82
2023-05-09T09:56:09.973Z,11.10
2023-05-09T09:58:36.874Z,10.93
2023-05-09T10:01:13.719Z,10.90
2023-05-09T10:03:42.388Z,9.73
2023-05-09T10:06:14.138Z,9.70
2023-05-09T10:08:42.022Z,10.77
2023-05-09T10:11:09.814Z,11.18
2023-05-09T10:13:38.399Z,10.90
2023-05-09T10:16:06.400Z,11.80
2023-05-09T10:18:34.037Z,11.30
2023-05-09T10:21:05.143Z,11.10
2023-05-09T10:23:36.934Z,11.55
2023-05-09T10:26:09.498Z,10.52
2023-05-09T10:28:39.708Z,11.68
2023-05-09T10:31:16.580Z,10.23
2023-05-09T10:33:51.067Z,10.47
2023-05-09T10:36:29.133Z,9.95
2023-05-09T10:38:56.226Z,10.30
2023-05-09T10:41:23.640Z,10.32
2023-05-09T10:43:50.453Z,9.63
2023-05-09T10:46:17.687Z,10.33
2023-05-09T10:48:44.933Z,10.20
2023-05-09T10:51:12.503Z,10.35
2023-05-09T10:53:49.754Z,10.57
2023-05-09T10:56:39.895Z,10.07
2023-05-09T10:59:06.476Z,9.93
2023-05-09T11:01:35.550Z,10.75
2023-05-09T11:04:09.064Z,10.77
2023-05-09T11:06:49.249Z,11.05
2023-05-09T11:09:37.997Z,12.00
2023-05-09T11:12:04.567Z,12.40
2023-05-09T11:14:43.363Z,12.55
2023-05-09T11:17:22.807Z,11.13
2023-05-09T11:20:09.957Z,12.95
2023-05-09T11:22:42.652Z,12.95
2023-05-09T11:25:11.441Z,12.70
2023-05-09T11:27:45.297Z,11.50
2023-05-09T11:30:15.293Z,11.40
2023-05-09T11:32:43.609Z,11.98
2023-05-09T11:35:15.946Z,11.15
2023-05-09T11:37:47.053Z,12.10
2023-05-09T11:40:15.670Z,11.02
2023-05-09T11:42:44.736Z,12.00
2023-05-09T11:45:13.355Z,11.02
2023-05-09T11:47:40.933Z,11.13
2023-05-09T11:50:12.683Z,11.43
2023-05-09T11:52:40.334Z,12.18
2023-05-09T11:55:10.902Z,11.75
2023-05-09T11:57:44.735Z,11.68
2023-05-09T12:00:11.977Z,11.60
2023-05-09T12:02:39.269Z,10.53
2023-05-09T12:05:13.001Z,10.63
2023-05-09T12:07:41.361Z,10.27
2023-05-09T12:10:08.624Z,10.90
2023-05-09T12:12:36.423Z,11.40
2023-05-09T12:15:07.708Z,11.50
2023-05-09T12:17:37.354Z,9.98
2023-05-09T12:20:07.205Z,10.77
2023-05-09T12:22:33.940Z,11.32
2023-05-09T12:25:02.289Z,11.45
2023-05-09T12:27:29.806Z,10.63
2023-05-09T12:29:56.589Z,11.10
2023-05-09T12:32:23.464Z,11.80
2023-05-09T12:34:51.504Z,11.13
2023-05-09T12:37:19.135Z,10.13
2023-05-09T12:40:01.541Z,11.03
2023-05-09T12:42:29.302Z,11.18
2023-05-09T12:44:56.745Z,10.20
2023-05-09T12:47:26.851Z,10.20
2023-05-09T12:49:53.347Z,8.13
2023-05-09T12:52:20.589Z,8.27
2023-05-09T12:54:48.451Z,8.48
2023-05-09T12:57:25.044Z,6.70
2023-05-09T12:59:51.909Z,7.35
2023-05-09T13:02:19.137Z,7.60
2023-05-09T13:04:45.968Z,7.50
2023-05-09T13:07:12.483Z,7.72
2023-05-09T13:09:55.418Z,7.22
2023-05-09T13:12:21.902Z,7.15
2023-05-09T13:14:48.561Z,7.65
2023-05-09T13:17:15.056Z,7.73
2023-05-09T13:19:41.551Z,8.48
2023-05-09T13:22:09.093Z,8.63
2023-05-09T13:24:36.935Z,9.00
2023-05-09T13:27:04.712Z,8.80
2023-05-09T13:29:31.327Z,9.20
2023-05-09T13:31:58.562Z,8.35
2023-05-09T13:34:25.046Z,9.18
2023-05-09T13:36:51.541Z,8.73
2023-05-09T13:39:18.024Z,7.72
2023-05-09T13:41:44.495Z,7.63
2023-05-09T13:44:10.964Z,7.85
2023-05-09T13:46:37.506Z,7.68
2023-05-09T13:49:04.438Z,8.43
2023-05-09T13:51:31.019Z,8.23
2023-05-09T13:53:57.486Z,7.73
2023-05-09T13:56:24.272Z,7.70
2023-05-09T13:58:51.309Z,6.90
2023-05-09T14:01:18.381Z,7.63
2023-05-09T14:03:47.194Z,8.38
2023-05-09T14:06:15.453Z,7.50
2023-05-09T14:08:42.058Z,7.38
2023-05-09T14:11:09.328Z,8.18
2023-05-09T14:13:35.846Z,8.10
2023-05-09T14:16:02.353Z,8.50
2023-05-09T14:18:28.912Z,8.53
2023-05-09T14:20:55.520Z,8.82
2023-05-09T14:23:22.322Z,7.97
2023-05-09T14:25:48.965Z,8.05
2023-05-09T14:28:15.531Z,8.80
2023-05-09T14:30:42.507Z,8.73
2023-05-09T14:33:09.053Z,8.80
2023-05-09T14:35:35.809Z,8.85
2023-05-09T14:38:02.675Z,7.93
2023-05-09T14:40:32.226Z,8.00
2023-05-09T14:43:01.728Z,7.23
2023-05-09T14:45:29.465Z,7.65
2023-05-09T14:47:56.042Z,7.32
2023-05-09T14:50:22.697Z,7.82
2023-05-09T14:52:50.890Z,8.48
2023-05-09T14:55:18.292Z,7.83
2023-05-09T14:57:44.875Z,8.38
2023-05-09T15:00:20.302Z,7.47
2023-05-09T15:02:48.176Z,8.10
2023-05-09T15:05:14.853Z,7.35
2023-05-09T15:07:41.539Z,7.83
2023-05-09T15:10:08.469Z,7.47
2023-05-09T15:12:35.005Z,6.90
2023-05-09T15:15:18.731Z,7.22
2023-05-09T15:17:46.246Z,7.55
2023-05-09T15:20:17.563Z,6.97
2023-05-09T15:22:45.129Z,7.80
2023-05-09T15:25:12.174Z,6.68
2023-05-09T15:27:39.518Z,6.68
2023-05-09T15:30:07.198Z,6.22
2023-05-09T15:32:37.512Z,6.83
2023-05-09T15:35:05.857Z,6.90
2023-05-09T15:37:33.759Z,6.22
2023-05-09T15:40:02.167Z,6.15
2023-05-09T15:42:28.665Z,6.10
2023-05-09T15:44:55.264Z,7.80
2023-05-09T15:47:22.182Z,6.97
2023-05-09T15:49:48.690Z,7.88
2023-05-09T15:52:15.206Z,7.13
2023-05-09T15:54:41.866Z,6.65
2023-05-09T15:57:08.486Z,6.50
2023-05-09T15:59:34.916Z,6.15
2023-05-09T16:02:01.479Z,5.18
2023-05-09T16:04:28.020Z,5.00
2023-05-09T16:06:55.562Z,4.40
2023-05-09T16:09:22.092Z,4.57
2023-05-09T16:11:48.610Z,5.43
2023-05-09T16:14:15.122Z,4.53
2023-05-09T16:16:42.743Z,5.50
2023-05-09T16:19:09.900Z,4.95
2023-05-09T16:21:37.750Z,5.87
2023-05-09T16:24:04.970Z,5.25
2023-05-09T16:26:31.542Z,5.45
2023-05-09T16:28:58.107Z,5.72
2023-05-09T16:31:26.558Z,6.20
2023-05-09T16:33:54.202Z,5.83
2023-05-09T16:36:21.379Z,7.13
2023-05-09T16:38:48.155Z,7.18
2023-05-09T16:41:14.702Z,7.18
2023-05-09T16:43:41.545Z,6.70
2023-05-09T16:46:08.394Z,6.53
2023-05-09T16:48:35.381Z,7.40
2023-05-09T16:51:01.889Z,7.32
2023-05-09T16:53:28.480Z,7.70
2023-05-09T16:55:55.053Z,7.82
2023-05-09T16:58:21.594Z,7.17
2023-05-09T17:00:48.351Z,8.00
2023-05-09T17:03:14.973Z,7.70
2023-05-09T17:05:41.412Z,7.28
2023-05-09T17:08:08.027Z,8.02
2023-05-09T17:10:37.045Z,7.77
2023-05-09T17:13:08.499Z,7.40
2023-05-09T17:15:35.188Z,8.73
2023-05-09T17:18:03.034Z,8.65
2023-05-09T17:20:29.985Z,7.90
2023-05-09T17:22:57.267Z,8.97
2023-05-09T17:25:23.804Z,9.90
2023-05-09T17:27:50.286Z,9.63
2023-05-09T17:30:17.949Z,8.82
2023-05-09T17:32:46.080Z,8.30
2023-05-09T17:35:13.661Z,8.17
2023-05-09T17:37:40.115Z,9.55
2023-05-09T17:40:07.888Z,9.15
2023-05-09T17:42:34.400Z,9.63
2023-05-09T17:45:00.928Z,8.88
2023-05-09T17:47:28.705Z,9.20
2023-05-09T17:49:55.388Z,9.55
2023-05-09T17:52:22.117Z,9.93
2023-05-09T17:54:48.784Z,9.70
2023-05-09T17:57:15.269Z,9.18
2023-05-09T17:59:41.822Z,8.90
2023-05-09T18:02:08.367Z,9.40
2023-05-09T18:04:34.869Z,9.00
2023-05-09T18:07:01.573Z,9.40
2023-05-09T18:09:28.598Z,10.00
2023-05-09T18:11:55.092Z,8.50
2023-05-09T18:14:21.647Z,9.15
2023-05-09T18:16:48.268Z,9.15
2023-05-09T18:19:14.744Z,9.80
2023-05-09T18:21:41.521Z,9.32
2023-05-09T18:24:09.185Z,10.40
2023-05-09T18:26:35.711Z,9.40
2023-05-09T18:29:02.211Z,10.38
2023-05-09T18:31:29.351Z,9.50
2023-05-09T18:33:56.339Z,9.95
2023-05-09T18:36:23.142Z,10.93
2023-05-09T18:38:49.688Z,9.43
2023-05-09T18:41:17.250Z,11.38
2023-05-09T18:43:46.752Z,9.88
2023-05-09T18:46:21.258Z,10.73
2023-05-09T18:48:50.359Z,10.30
2023-05-09T18:51:17.789Z,11.25
2023-05-09T18:53:44.892Z,10.27
2023-05-09T18:56:11.414Z,11.10
2023-05-09T18:58:38.198Z,10.60
2023-05-09T19:01:05.234Z,10.87
2023-05-09T19:03:31.976Z,10.30
2023-05-09T19:05:59.505Z,11.63
2023-05-09T19:08:26.673Z,11.45
2023-05-09T19:10:53.224Z,10.77
2023-05-09T19:13:19.743Z,10.37
2023-05-09T19:15:47.473Z,11.75
2023-05-09T19:18:14.311Z,10.07
2023-05-09T19:20:40.836Z,11.00
2023-05-09T19:23:07.358Z,11.75
2023-05-09T19:25:33.976Z,10.97
2023-05-09T19:28:00.733Z,12.18
2023-05-09T19:30:27.315Z,11.32
2023-05-09T19:32:53.826Z,12.52
2023-05-09T19:35:20.752Z,12.43
2023-05-09T19:37:47.231Z,13.17
2023-05-09T19:40:14.267Z,12.70
2023-05-09T19:42:41.940Z,13.05
2023-05-09T19:45:09.162Z,12.95
2023-05-09T19:47:35.902Z,12.95
2023-05-09T19:50:02.483Z,13.53
2023-05-09T19:52:29.880Z,13.55
2023-05-09T19:54:56.393Z,13.13
2023-05-09T19:57:22.887Z,13.35
2023-05-09T19:59:49.369Z,13.32
2023-05-09T20:02:15.870Z,14.83
2023-05-09T20:04:49.416Z,14.20
2023-05-09T20:07:16.760Z,14.10
2023-05-09T20:09:43.319Z,14.95
2023-05-09T20:12:10.267Z,14.90
2023-05-09T20:14:37.099Z,16.17
2023-05-09T20:17:05.319Z,14.68
2023-05-09T20:19:33.131Z,14.98
2023-05-09T20:22:01.232Z,14.98
2023-05-09T20:24:28.580Z,14.00
2023-05-09T20:26:55.253Z,14.00
2023-05-09T20:29:25.933Z,15.00
2023-05-09T20:31:52.629Z,14.43
2023-05-09T20:34:20.850Z,14.13
2023-05-09T20:36:51.363Z,14.98
2023-05-09T20:39:18.444Z,13.60
2023-05-09T20:41:45.466Z,13.27
2023-05-09T20:44:13.382Z,13.25
2023-05-09T20:46:43.382Z,12.98
2023-05-09T20:49:09.855Z,13.90
2023-05-09T20:51:36.424Z,14.07
2023-05-09T20:54:03.282Z,14.23
2023-05-09T20:56:29.954Z,14.23
2023-05-09T20:58:56.784Z,14.68
2023-05-09T21:01:23.339Z,15.27
2023-05-09T21:03:49.861Z,14.70
2023-05-09T21:06:16.368Z,14.88
2023-05-09T21:08:43.288Z,14.50
2023-05-09T21:11:09.775Z,14.23
2023-05-09T21:13:37.207Z,15.25
2023-05-09T21:16:03.864Z,15.40
2023-05-09T21:18:30.358Z,14.48
2023-05-09T21:20:56.994Z,15.80
2023-05-09T21:23:23.461Z,15.95
2023-05-09T21:25:49.892Z,15.73
2023-05-09T21:28:17.302Z,16.70
2023-05-09T21:30:43.836Z,17.13
2023-05-09T21:33:10.670Z,17.05
2023-05-09T21:35:37.208Z,16.80
2023-05-09T21:38:03.677Z,16.75
2023-05-09T21:40:30.159Z,18.07
2023-05-09T21:42:56.737Z,18.83
2023-05-09T21:45:23.391Z,19.48
2023-05-09T21:47:49.997Z,17.88
2023-05-09T21:50:16.870Z,19.20
2023-05-09T21:52:43.722Z,17.73
2023-05-09T21:55:10.255Z,18.15
2023-05-09T21:57:36.717Z,18.17
2023-05-09T22:00:05.409Z,20.67
2023-05-09T22:02:34.060Z,20.20
2023-05-09T22:05:01.064Z,19.70
2023-05-09T22:07:27.507Z,21.88
2023-05-09T22:09:54.098Z,20.25
2023-05-09T22:12:20.606Z,19.50
2023-05-09T22:14:55.903Z,21.15
2023-05-09T22:17:24.210Z,20.23
2023-05-09T22:19:50.826Z,19.73
2023-05-09T22:22:17.349Z,19.98
2023-05-09T22:24:43.845Z,21.00
2023-05-09T22:27:11.000Z,20.58
2023-05-09T22:29:37.502Z,18.83
2023-05-09T22:32:04.543Z,20.92
2023-05-09T22:34:31.153Z,21.33
2023-05-09T22:36:57.620Z,21.05
2023-05-09T22:39:24.229Z,20.30
2023-05-09T22:41:50.696Z,21.60
2023-05-09T22:44:17.202Z,21.80
2023-05-09T22:46:43.650Z,22.98
2023-05-09T22:49:10.129Z,22.50
2023-05-09T22:51:36.653Z,23.73
2023-05-09T22:54:03.292Z,23.63
2023-05-09T22:56:29.847Z,23.70
2023-05-09T22:58:56.364Z,22.10
2023-05-09T23:01:22.944Z,23.13
2023-05-09T23:03:49.426Z,24.52
2023-05-09T23:06:16.005Z,25.30
2023-05-09T23:08:42.557Z,24.88
2023-05-09T23:11:09.032Z,24.35
2023-05-09T23:13:35.512Z,24.35
2023-05-09T23:16:02.595Z,25.70
2023-05-09T23:18:29.367Z,23.93
2023-05-09T23:20:55.827Z,23.58
2023-05-09T23:23:22.426Z,23.67
2023-05-09T23:25:48.883Z,25.60
2023-05-09T23:28:15.470Z,25.42
2023-05-09T23:30:41.992Z,25.17
2023-05-09T23:33:08.523Z,26.35
2023-05-09T23:35:35.051Z,23.65
2023-05-09T23:38:01.628Z,25.38
2023-05-09T23:40:28.116Z,24.30
2023-05-09T23:42:54.647Z,25.17
2023-05-09T23:45:21.194Z,23.67
2023-05-09T23:47:47.714Z,25.10
2023-05-09T23:50:14.403Z,25.27
2023-05-09T23:52:41.917Z,25.05
2023-05-09T23:55:09.023Z,25.73
2023-05-09T23:57:35.565Z,24.45
